createdAt,value
2022-11-16T00:12:18.822Z,54
2022-11-16T00:22:18.879Z,42
2022-11-16T00:32:18.926Z,20
2022-11-16T00:42:19.568Z,26
2022-11-16T00:52:20.059Z,27
2022-11-16T01:02:20.854Z,26
2022-11-16T01:12:21.607Z,17
2022-11-16T01:32:23.502Z,42
2022-11-16T01:42:23.566Z,27
2022-11-16T01:52:23.803Z,26
2022-11-16T02:02:24.140Z,34
2022-11-16T02:12:24.242Z,30
2022-11-16T02:22:24.401Z,43
2022-11-16T02:32:25.161Z,40
2022-11-16T02:42:26.117Z,32
2022-11-16T02:52:26.681Z,6
2022-11-16T03:02:27.403Z,36
2022-11-16T03:12:27.452Z,43
2022-11-16T03:22:27.745Z,58
2022-11-16T03:32:28.388Z,29
2022-11-16T03:42:28.769Z,40
2022-11-16T03:52:29.302Z,55
2022-11-16T04:02:29.519Z,42
2022-11-16T04:12:29.905Z,35
2022-11-16T04:32:30.532Z,45
2022-11-16T04:42:30.774Z,39
2022-11-16T04:52:31.668Z,14
2022-11-16T05:02:31.900Z,12
2022-11-16T05:22:32.691Z,41
2022-11-16T05:32:33.544Z,41
2022-11-16T05:52:34.217Z,53
2022-11-16T06:02:35.264Z,43
2022-11-16T06:12:36.214Z,58
2022-11-16T06:22:36.556Z,32
2022-11-16T06:32:37.243Z,43
2022-11-16T06:42:37.303Z,29
2022-11-16T06:52:38.330Z,32
2022-11-16T07:12:39.445Z,49
2022-11-16T07:32:39.983Z,28
2022-11-16T07:42:40.530Z,50
2022-11-16T07:52:40.877Z,64
2022-11-16T08:02:41.414Z,46
2022-11-16T08:12:42.277Z,56
2022-11-16T08:22:43.298Z,69
2022-11-16T08:32:43.781Z,0
2022-11-16T08:42:44.210Z,0
2022-11-16T08:52:44.601Z,0
2022-11-16T09:02:45.173Z,0
2022-11-16T09:12:45.530Z,100
2022-11-16T09:22:46.167Z,0
2022-11-16T09:32:46.311Z,0
2022-11-16T09:52:47.149Z,0
2022-11-16T10:12:48.422Z,29
2022-11-16T10:32:49.486Z,56
2022-11-16T10:52:50.492Z,57
2022-11-16T11:12:51.946Z,91
2022-11-16T11:32:53.589Z,92
2022-11-16T11:52:54.797Z,100
2022-11-16T12:02:55.634Z,100
2022-11-16T12:12:56.532Z,99
2022-11-16T12:23:01.072Z,100
2022-11-16T12:42:58.372Z,100
2022-11-16T12:52:59.089Z,100
2022-11-16T13:02:59.793Z,100
2022-11-16T13:13:22.229Z,100
2022-11-16T13:23:00.715Z,100
2022-11-16T13:33:01.169Z,100
2022-11-16T14:03:02.721Z,100
2022-11-16T14:13:03.647Z,100
2022-11-16T14:23:04.410Z,100
2022-11-16T14:33:04.952Z,100
2022-11-16T14:43:17.133Z,94
2022-11-16T14:53:06.471Z,81
2022-11-16T15:03:07.225Z,75
2022-11-16T15:13:08.145Z,72
2022-11-16T15:23:09.130Z,72
2022-11-16T15:33:09.617Z,64
2022-11-16T15:43:10.468Z,49
2022-11-16T15:53:11.423Z,36
2022-11-16T16:03:11.826Z,21
2022-11-16T16:13:11.914Z,10
2022-11-16T16:23:12.772Z,12
2022-11-16T16:33:13.141Z,12
2022-11-16T16:43:13.596Z,19
2022-11-16T16:53:13.833Z,21
2022-11-16T17:03:14.600Z,31
2022-11-16T17:13:15.571Z,31
2022-11-16T17:23:16.445Z,24
2022-11-16T17:33:16.507Z,21
2022-11-16T17:43:16.626Z,10
2022-11-16T17:53:17.602Z,0
2022-11-16T18:03:18.414Z,0
2022-11-16T18:13:18.870Z,0
2022-11-16T18:23:19.693Z,0
2022-11-16T18:33:20.092Z,0
2022-11-16T18:43:20.528Z,0
2022-11-16T18:53:20.762Z,0
2022-11-16T19:03:21.690Z,0
2022-11-16T19:13:22.566Z,0
2022-11-16T19:23:22.962Z,0
2022-11-16T19:33:23.700Z,0
2022-11-16T19:43:23.999Z,0
2022-11-16T19:53:24.771Z,0
2022-11-16T20:03:24.908Z,0
2022-11-16T20:13:25.604Z,44
2022-11-16T20:23:26.329Z,100
2022-11-16T20:33:26.748Z,100
2022-11-16T20:43:27.744Z,16
2022-11-16T20:53:28.038Z,0
2022-11-16T21:03:28.305Z,0
2022-11-16T21:13:28.950Z,0
2022-11-16T21:23:29.592Z,0
2022-11-16T21:33:29.868Z,16
2022-11-16T21:43:30.746Z,0
2022-11-16T21:53:31.987Z,0
2022-11-16T22:03:32.139Z,100
2022-11-16T22:23:32.577Z,0
2022-11-16T22:33:33.319Z,0
2022-11-16T22:43:34.270Z,0
2022-11-16T22:53:34.774Z,0
2022-11-16T23:03:35.780Z,0
2022-11-16T23:13:35.779Z,0
2022-11-16T23:13:57.551Z,0
2022-11-16T23:23:41.300Z,0
2022-11-16T23:33:41.472Z,0
2022-11-16T23:43:41.752Z,0
2022-11-16T23:53:42.507Z,0
